Long Buckby, United Kingdom
Current Conditions -  °F | °C
As of 6:50 PM on Saturday 24 Jan 2015 (Local Time) from EGBE Reporting Station
Few Clouds Few Clouds  
Wind Chill: 35°   Ceiling: Unl
Heat Index: 39°   Visibility: 6mi
Dew Point: 32°   Wind: 6mph
Humidity: 75%   Direction: 260°W
Pressure: 30.42"   Gusts: NA
Location:  52.3°N, 1.08°W
Report Text: EGBE 241850Z 26005KT 9999 FEW040 04/M00 Q1030
Loading
Personal Weather Stations






























Interactive Weather Map New forecast layout! Learn more

10-Day Weather Forecast

Advertisements
Track Severe Weather on mobile